createdAt,value
2023-02-10T00:03:10.546Z,72.33
2023-02-10T00:08:13.148Z,72.63
2023-02-10T00:13:13.855Z,72.07
2023-02-10T00:18:14.590Z,72.45
2023-02-10T00:23:16.639Z,72.44
2023-02-10T00:28:17.420Z,72.87
2023-02-10T00:33:19.033Z,72.94
2023-02-10T00:38:21.089Z,73.12
2023-02-10T00:43:21.740Z,73.31
2023-02-10T00:48:23.002Z,73.58
2023-02-10T00:53:25.200Z,73.57
2023-02-10T00:58:26.255Z,73.63
2023-02-10T01:03:27.418Z,73.94
2023-02-10T01:08:29.477Z,73.80
2023-02-10T01:13:30.458Z,74.03
2023-02-10T01:18:31.149Z,74.02
2023-02-10T01:23:33.119Z,74.25
2023-02-10T01:28:34.932Z,74.28
2023-02-10T01:33:35.843Z,74.04
2023-02-10T01:38:38.150Z,74.37
2023-02-10T01:43:58.219Z,74.55
2023-02-10T01:49:03.711Z,74.49
2023-02-10T01:54:07.561Z,74.44
2023-02-10T01:59:09.209Z,74.14
2023-02-10T02:04:10.702Z,74.29
2023-02-10T02:09:13.921Z,74.40
2023-02-10T02:14:32.423Z,74.11
2023-02-10T02:20:24.372Z,74.39
2023-02-10T02:25:38.872Z,74.38
2023-02-10T02:31:11.141Z,74.74
2023-02-10T02:36:20.198Z,74.77
2023-02-10T02:41:25.164Z,74.88
2023-02-10T02:46:36.405Z,75.19
2023-02-10T02:51:48.471Z,75.15
2023-02-10T02:56:56.602Z,74.64
2023-02-10T03:02:01.052Z,74.98
2023-02-10T03:07:03.971Z,74.66
2023-02-10T03:12:05.170Z,74.71
2023-02-10T03:17:06.273Z,74.34
2023-02-10T03:22:08.311Z,74.44
2023-02-10T03:27:09.039Z,74.59
2023-02-10T03:32:09.915Z,74.35
2023-02-10T03:37:12.041Z,73.94
2023-02-10T03:42:12.755Z,73.32
2023-02-10T03:47:13.475Z,72.74
2023-02-10T03:52:15.526Z,72.73
2023-02-10T03:57:16.266Z,72.31
2023-02-10T04:02:16.902Z,71.54
2023-02-10T04:07:19.408Z,71.54
2023-02-10T04:12:20.089Z,71.41
2023-02-10T04:17:20.781Z,71.60
2023-02-10T04:22:22.773Z,70.95
2023-02-10T04:27:23.444Z,70.32
2023-02-10T04:32:24.388Z,70.44
2023-02-10T04:37:26.550Z,70.36
2023-02-10T04:42:31.022Z,70.38
2023-02-10T04:47:31.869Z,70.36
2023-02-10T04:52:33.896Z,68.97
2023-02-10T04:57:34.564Z,66.79
2023-02-10T05:02:35.238Z,67.18
2023-02-10T05:07:37.248Z,68.33
2023-02-10T05:12:37.912Z,71.81
2023-02-10T05:17:38.560Z,74.55
2023-02-10T05:22:41.399Z,75.93
2023-02-10T05:27:42.036Z,76.48
2023-02-10T05:32:42.882Z,76.31
2023-02-10T05:37:45.056Z,76.01
2023-02-10T05:42:45.838Z,76.53
2023-02-10T05:47:46.507Z,76.68
2023-02-10T05:52:48.513Z,76.69
2023-02-10T05:57:49.158Z,77.07
2023-02-10T06:02:49.882Z,76.08
2023-02-10T06:07:51.933Z,76.43
2023-02-10T06:12:52.568Z,76.73
2023-02-10T06:17:53.227Z,76.57
2023-02-10T06:22:55.171Z,77.18
2023-02-10T06:27:55.906Z,76.99
2023-02-10T06:32:56.616Z,77.21
2023-02-10T06:37:58.670Z,77.28
2023-02-10T06:42:59.339Z,76.39
2023-02-10T06:48:00.099Z,76.92
2023-02-10T06:53:02.072Z,76.31
2023-02-10T06:58:03.668Z,75.87
2023-02-10T07:03:04.507Z,75.76
2023-02-10T07:08:08.908Z,76.13
2023-02-10T07:13:09.819Z,76.07
2023-02-10T07:18:10.472Z,76.29
2023-02-10T07:23:12.472Z,76.22
2023-02-10T07:28:13.181Z,77.07
2023-02-10T07:33:13.829Z,75.34
2023-02-10T07:38:15.858Z,76.19
2023-02-10T07:43:16.503Z,75.80
2023-02-10T07:48:21.430Z,75.59
2023-02-10T07:53:23.619Z,75.00
2023-02-10T07:58:24.262Z,74.57
2023-02-10T08:03:24.960Z,74.34
2023-02-10T08:08:27.011Z,73.81
2023-02-10T08:13:28.553Z,73.72
2023-02-10T08:18:29.240Z,73.00
2023-02-10T08:23:31.773Z,72.97
2023-02-10T08:28:32.500Z,72.96
2023-02-10T08:33:45.977Z,73.04
2023-02-10T08:38:50.133Z,73.75
2023-02-10T08:43:50.831Z,73.88
2023-02-10T08:48:51.519Z,72.78
2023-02-10T08:53:53.515Z,72.44
2023-02-10T08:58:54.207Z,72.15
2023-02-10T09:03:55.841Z,71.96
2023-02-10T09:08:58.251Z,72.36
2023-02-10T09:13:58.947Z,73.09
2023-02-10T09:18:59.684Z,73.36
2023-02-10T09:24:01.695Z,73.25
2023-02-10T09:29:02.368Z,72.98
2023-02-10T09:34:03.240Z,73.49
2023-02-10T09:39:05.533Z,72.70
2023-02-10T09:44:13.332Z,72.05
2023-02-10T09:49:28.282Z,72.56
2023-02-10T09:54:33.445Z,72.12
2023-02-10T09:59:37.599Z,72.29
2023-02-10T10:04:39.823Z,72.61
2023-02-10T10:09:44.740Z,72.10
2023-02-10T10:14:46.315Z,71.57
2023-02-10T10:20:00.549Z,71.71
2023-02-10T10:25:23.920Z,72.11
2023-02-10T10:30:36.432Z,72.21
2023-02-10T10:35:41.500Z,71.99
2023-02-10T10:40:48.013Z,72.25
2023-02-10T10:45:54.023Z,73.33
2023-02-10T10:50:57.581Z,72.80
2023-02-10T10:56:00.699Z,72.85
2023-02-10T11:01:03.362Z,72.54
2023-02-10T11:06:09.202Z,72.60
2023-02-10T11:11:26.966Z,72.24
2023-02-10T11:16:43.215Z,72.69
2023-02-10T11:21:43.949Z,72.71
2023-02-10T11:26:56.443Z,72.43
2023-02-10T11:31:58.159Z,73.14
2023-02-10T11:37:11.140Z,72.62
2023-02-10T11:42:21.933Z,71.72
2023-02-10T11:47:22.661Z,71.89
2023-02-10T11:52:26.026Z,70.81
2023-02-10T11:57:57.006Z,70.99
2023-02-10T12:03:24.211Z,70.75
2023-02-10T12:08:31.752Z,70.13
2023-02-10T12:13:47.904Z,68.92
2023-02-10T12:18:58.961Z,69.32
2023-02-10T12:24:14.220Z,68.53
2023-02-10T12:29:33.649Z,68.95
2023-02-10T12:35:01.426Z,68.50
2023-02-10T12:40:21.017Z,68.45
2023-02-10T12:45:30.621Z,70.00
2023-02-10T12:50:49.764Z,69.13
2023-02-10T12:55:55.290Z,69.88
2023-02-10T13:01:05.977Z,70.02
2023-02-10T13:06:20.720Z,67.57
2023-02-10T13:11:29.068Z,67.23
2023-02-10T13:16:35.547Z,67.47
2023-02-10T13:21:42.955Z,67.68
2023-02-10T13:27:00.122Z,67.67
2023-02-10T13:32:20.851Z,67.96
2023-02-10T13:37:29.005Z,66.10
2023-02-10T13:42:32.536Z,65.37
2023-02-10T13:47:39.460Z,65.30
2023-02-10T13:52:52.452Z,64.86
2023-02-10T13:57:56.183Z,65.10
2023-02-10T14:03:20.876Z,65.21
2023-02-10T14:08:29.581Z,64.18
2023-02-10T14:13:32.461Z,63.86
2023-02-10T14:18:36.679Z,64.21
2023-02-10T14:23:39.663Z,64.23
2023-02-10T14:28:42.994Z,64.46
2023-02-10T14:33:54.830Z,64.16
2023-02-10T14:38:57.353Z,64.40
2023-02-10T14:43:58.232Z,64.58
2023-02-10T14:49:03.315Z,64.71
2023-02-10T14:54:11.315Z,63.41
2023-02-10T14:59:22.095Z,63.94
2023-02-10T15:04:26.391Z,63.96
2023-02-10T15:09:35.109Z,63.67
2023-02-10T15:14:41.118Z,64.34
2023-02-10T15:19:55.006Z,64.72
2023-02-10T15:24:55.711Z,64.91
2023-02-10T15:30:07.000Z,64.53
2023-02-10T15:35:10.032Z,65.05
2023-02-10T15:40:19.568Z,65.48
2023-02-10T15:45:23.036Z,65.44
2023-02-10T15:50:25.202Z,65.47
2023-02-10T15:55:30.961Z,66.02
2023-02-10T16:00:33.873Z,66.30
2023-02-10T16:05:38.573Z,65.41
2023-02-10T16:10:39.493Z,65.81
2023-02-10T16:15:40.262Z,66.37
2023-02-10T16:20:42.626Z,66.53
2023-02-10T16:25:49.639Z,65.46
2023-02-10T16:30:50.894Z,65.89
2023-02-10T16:35:54.341Z,65.46
2023-02-10T16:40:55.024Z,65.31
2023-02-10T16:45:56.315Z,65.27
2023-02-10T16:50:58.400Z,66.00
2023-02-10T16:55:59.073Z,66.00
2023-02-10T17:00:59.774Z,66.37
2023-02-10T17:06:01.866Z,67.59
2023-02-10T17:11:02.534Z,67.81
2023-02-10T17:16:03.239Z,68.60
2023-02-10T17:21:05.595Z,69.32
2023-02-10T17:26:06.315Z,69.72
2023-02-10T17:31:07.306Z,69.35
2023-02-10T17:36:10.096Z,70.12
2023-02-10T17:41:10.874Z,70.17
2023-02-10T17:46:11.858Z,70.43
2023-02-10T17:51:16.221Z,70.39
2023-02-10T17:56:17.118Z,70.56
2023-02-10T18:01:21.757Z,70.91
2023-02-10T18:06:25.690Z,70.86
2023-02-10T18:11:30.062Z,73.06
2023-02-10T18:16:31.759Z,71.19
2023-02-10T18:21:33.910Z,70.56
2023-02-10T18:26:34.581Z,70.75
2023-02-10T18:31:35.361Z,70.33
2023-02-10T18:36:37.482Z,70.86
2023-02-10T18:41:38.229Z,71.67
2023-02-10T18:46:38.883Z,71.37
2023-02-10T18:51:41.029Z,71.54
2023-02-10T18:56:41.752Z,71.96
2023-02-10T19:01:42.519Z,71.96
2023-02-10T19:06:44.698Z,73.13
2023-02-10T19:11:45.436Z,72.98
2023-02-10T19:16:46.191Z,73.34
2023-02-10T19:21:48.291Z,74.59
2023-02-10T19:26:48.964Z,74.71
2023-02-10T19:31:49.705Z,74.49
2023-02-10T19:36:52.106Z,74.51
2023-02-10T19:41:53.026Z,75.63
2023-02-10T19:46:53.978Z,75.98
2023-02-10T19:51:57.382Z,75.88
2023-02-10T19:56:58.291Z,75.89
2023-02-10T20:01:59.009Z,75.95
2023-02-10T20:07:01.068Z,75.91
2023-02-10T20:12:01.809Z,74.50
2023-02-10T20:17:03.002Z,74.22
2023-02-10T20:22:05.052Z,71.49
2023-02-10T20:27:05.771Z,71.69
2023-02-10T20:32:06.707Z,70.73
2023-02-10T20:37:08.843Z,70.09
2023-02-10T20:42:09.566Z,70.20
2023-02-10T20:47:10.240Z,69.25
2023-02-10T20:52:12.302Z,68.81
2023-02-10T20:57:12.990Z,68.20
2023-02-10T21:02:14.971Z,68.67
2023-02-10T21:07:17.074Z,67.34
2023-02-10T21:12:19.796Z,67.67
2023-02-10T21:17:20.439Z,68.14
2023-02-10T21:22:25.188Z,68.02
2023-02-10T21:27:25.913Z,67.93
2023-02-10T21:32:26.564Z,67.72
2023-02-10T21:37:28.639Z,67.70
2023-02-10T21:42:29.409Z,67.91
2023-02-10T21:47:30.135Z,67.60
2023-02-10T21:52:32.140Z,67.86
2023-02-10T21:57:32.790Z,67.28
2023-02-10T22:02:33.456Z,67.56
2023-02-10T22:07:37.090Z,68.04
2023-02-10T22:12:37.961Z,68.34
2023-02-10T22:17:38.670Z,68.46
2023-02-10T22:22:40.800Z,69.04
2023-02-10T22:27:41.472Z,67.74
2023-02-10T22:32:43.246Z,67.68
2023-02-10T22:37:47.101Z,67.60
2023-02-10T22:42:48.129Z,67.30
2023-02-10T22:47:48.796Z,66.78
2023-02-10T22:52:50.786Z,66.69
2023-02-10T22:57:51.624Z,66.69
2023-02-10T23:02:52.543Z,67.15
2023-02-10T23:07:54.576Z,67.20
2023-02-10T23:12:55.698Z,68.40
2023-02-10T23:17:56.355Z,69.05
2023-02-10T23:22:58.411Z,69.25
2023-02-10T23:27:59.083Z,69.38
2023-02-10T23:33:00.603Z,68.06
2023-02-10T23:38:02.674Z,68.44
2023-02-10T23:43:04.513Z,68.50
2023-02-10T23:48:06.121Z,68.72
2023-02-10T23:53:08.145Z,67.99
2023-02-10T23:58:09.658Z,68.37
